createdAt,value
2022-10-21T00:00:42.920Z,100683.28
2022-10-21T00:03:12.076Z,100670.00
2022-10-21T00:05:39.842Z,100670.88
2022-10-21T00:08:07.606Z,100664.69
2022-10-21T00:13:08.460Z,100654.97
2022-10-21T00:15:36.361Z,100643.47
2022-10-21T00:18:04.440Z,100639.94
2022-10-21T00:20:36.018Z,100637.28
2022-10-21T00:23:06.692Z,100625.81
2022-10-21T00:25:34.437Z,100624.03
2022-10-21T00:28:02.262Z,100613.44
2022-10-21T00:30:30.210Z,100621.38
2022-10-21T00:33:02.136Z,100615.19
2022-10-21T00:35:35.194Z,100616.94
2022-10-21T00:38:03.074Z,100627.59
2022-10-21T00:40:31.303Z,100631.97
2022-10-21T00:42:59.439Z,100629.31
2022-10-21T00:45:28.706Z,100638.19
2022-10-21T00:48:03.379Z,100624.91
2022-10-21T00:50:40.183Z,100627.56
2022-10-21T00:53:14.076Z,100637.31
2022-10-21T00:55:49.283Z,100629.34
2022-10-21T00:58:19.817Z,100625.78
2022-10-21T01:00:47.841Z,100627.56
2022-10-21T01:03:15.918Z,100611.66
2022-10-21T01:05:46.253Z,100609.88
2022-10-21T01:08:14.150Z,100604.56
2022-10-21T01:10:43.068Z,100597.53
2022-10-21T01:13:24.216Z,100596.63
2022-10-21T01:16:03.550Z,100593.97
2022-10-21T01:18:37.169Z,100571.03
2022-10-21T01:21:21.757Z,100564.81
2022-10-21T01:24:22.471Z,100560.38
2022-10-21T01:27:20.889Z,100563.94
2022-10-21T01:30:12.149Z,100548.00
2022-10-21T01:33:06.670Z,100555.09
2022-10-21T01:35:39.575Z,100555.09
2022-10-21T01:38:16.973Z,100564.81
2022-10-21T01:40:51.846Z,100557.72
2022-10-21T01:43:30.523Z,100562.16
2022-10-21T01:46:02.659Z,100565.69
2022-10-21T01:48:36.974Z,100562.16
2022-10-21T01:51:08.189Z,100551.56
2022-10-21T01:53:42.504Z,100538.31
2022-10-21T01:56:12.830Z,100530.34
2022-10-21T01:58:43.262Z,100526.78
2022-10-21T02:01:13.751Z,100517.09
2022-10-21T02:03:46.187Z,100517.97
2022-10-21T02:06:14.958Z,100516.19
2022-10-21T02:08:43.901Z,100513.56
2022-10-21T02:11:13.296Z,100511.78
2022-10-21T02:13:49.167Z,100505.59
2022-10-21T02:16:19.952Z,100504.69
2022-10-21T02:18:49.077Z,100500.31
2022-10-21T02:21:20.219Z,100497.66
2022-10-21T02:23:53.984Z,100497.66
2022-10-21T02:26:22.143Z,100490.56
2022-10-21T02:28:50.455Z,100491.47
2022-10-21T02:31:40.521Z,100487.03
2022-10-21T02:34:21.485Z,100486.16
2022-10-21T02:36:57.128Z,100471.13
2022-10-21T02:39:29.337Z,100460.53
2022-10-21T02:41:59.830Z,100472.03
2022-10-21T02:44:27.692Z,100468.50
2022-10-21T02:46:55.469Z,100471.13
2022-10-21T02:49:24.582Z,100460.53
2022-10-21T02:51:52.350Z,100460.53
2022-10-21T02:54:20.118Z,100465.84
2022-10-21T02:56:47.876Z,100456.13
2022-10-21T02:59:15.641Z,100463.19
2022-10-21T03:01:43.470Z,100468.50
2022-10-21T03:04:11.234Z,100468.50
2022-10-21T03:06:40.389Z,100471.13
2022-10-21T03:09:08.113Z,100461.41
2022-10-21T03:11:36.062Z,100460.50
2022-10-21T03:14:03.929Z,100452.53
2022-10-21T03:16:31.710Z,100444.59
2022-10-21T03:18:59.818Z,100451.66
2022-10-21T03:21:27.536Z,100457.84
2022-10-21T03:23:56.737Z,100454.31
2022-10-21T03:26:24.454Z,100443.69
2022-10-21T03:28:52.221Z,100454.28
2022-10-21T03:31:19.942Z,100462.22
2022-10-21T03:33:47.839Z,100464.88
2022-10-21T03:36:15.587Z,100461.34
2022-10-21T03:38:43.413Z,100456.94
2022-10-21T03:41:12.550Z,100455.19
2022-10-21T03:43:40.312Z,100445.44
2022-10-21T03:46:08.088Z,100445.44
2022-10-21T03:48:35.846Z,100440.16
2022-10-21T03:51:03.655Z,100442.78
2022-10-21T03:53:42.973Z,100436.63
2022-10-21T03:56:13.038Z,100433.06
2022-10-21T03:58:41.098Z,100421.56
2022-10-21T04:01:12.028Z,100419.78
2022-10-21T04:03:40.215Z,100415.41
2022-10-21T04:06:08.334Z,100409.19
2022-10-21T04:08:36.132Z,100413.63
2022-10-21T04:11:04.129Z,100410.09
2022-10-21T04:13:33.432Z,100411.88
2022-10-21T04:16:02.689Z,100403.94
2022-10-21T04:18:30.757Z,100409.22
2022-10-21T04:20:58.501Z,100399.50
2022-10-21T04:23:26.327Z,100394.19
2022-10-21T04:25:54.073Z,100398.63
2022-10-21T04:28:21.857Z,100389.81
2022-10-21T04:30:51.820Z,100381.81
2022-10-21T04:33:19.815Z,100379.16
2022-10-21T04:35:47.628Z,100381.81
2022-10-21T04:38:15.579Z,100370.31
2022-10-21T04:40:43.378Z,100377.41
2022-10-21T04:43:11.122Z,100386.22
2022-10-21T04:45:39.796Z,100380.03
2022-10-21T04:48:09.056Z,100382.66
2022-10-21T04:50:36.800Z,100384.44
2022-10-21T04:53:04.579Z,100380.00
2022-10-21T04:55:32.435Z,100369.41
2022-10-21T04:58:00.170Z,100367.59
2022-10-21T05:00:27.953Z,100369.38
2022-10-21T05:02:55.805Z,100368.47
2022-10-21T05:05:25.022Z,100356.13
2022-10-21T05:07:53.067Z,100349.91
2022-10-21T05:10:22.399Z,100355.22
2022-10-21T05:12:50.625Z,100345.50
2022-10-21T05:15:19.190Z,100332.25
2022-10-21T05:17:47.540Z,100319.84
2022-10-21T05:20:15.697Z,100326.03
2022-10-21T05:22:44.936Z,100322.50
2022-10-21T05:25:12.871Z,100320.72
2022-10-21T05:27:40.596Z,100316.28
2022-10-21T05:30:09.811Z,100307.44
2022-10-21T05:32:37.787Z,100305.66
2022-10-21T05:35:06.270Z,100309.16
2022-10-21T05:37:34.281Z,100310.94
2022-10-21T05:40:04.297Z,100317.97
2022-10-21T05:42:32.079Z,100311.78
2022-10-21T05:44:59.817Z,100308.28
2022-10-21T05:47:27.555Z,100302.06
2022-10-21T05:49:55.351Z,100304.72
2022-10-21T05:52:23.101Z,100302.97
2022-10-21T05:54:50.851Z,100307.38
2022-10-21T05:57:19.973Z,100308.25
2022-10-21T05:59:47.740Z,100322.38
2022-10-21T06:02:15.492Z,100318.88
2022-10-21T06:04:43.254Z,100313.53
2022-10-21T06:07:11.019Z,100322.38
2022-10-21T06:09:38.872Z,100320.59
2022-10-21T06:12:07.553Z,100324.13
2022-10-21T06:14:41.002Z,100326.78
2022-10-21T06:17:08.777Z,100331.22
2022-10-21T06:19:36.591Z,100337.41
2022-10-21T06:22:04.378Z,100338.31
2022-10-21T06:24:33.234Z,100339.19
2022-10-21T06:27:01.001Z,100338.31
2022-10-21T06:29:29.067Z,100336.53
2022-10-21T06:31:58.234Z,100339.19
2022-10-21T06:34:26.079Z,100338.31
2022-10-21T06:36:53.856Z,100346.28
2022-10-21T06:39:21.811Z,100343.63
2022-10-21T06:41:49.541Z,100348.06
2022-10-21T06:44:37.271Z,100357.78
2022-10-21T06:47:06.401Z,100361.31
2022-10-21T06:49:34.188Z,100361.31
2022-10-21T06:52:01.980Z,100364.84
2022-10-21T06:54:29.729Z,100365.72
2022-10-21T06:56:57.498Z,100369.22
2022-10-21T06:59:25.238Z,100363.03
2022-10-21T07:02:00.147Z,100355.94
2022-10-21T07:04:29.947Z,100354.16
2022-10-21T07:06:57.837Z,100348.84
2022-10-21T07:09:25.821Z,100347.03
2022-10-21T07:11:53.681Z,100347.03
2022-10-21T07:14:21.441Z,100347.91
2022-10-21T07:16:49.355Z,100353.19
2022-10-21T07:19:17.106Z,100362.03
2022-10-21T07:21:46.252Z,100370.00
2022-10-21T07:24:16.288Z,100377.94
2022-10-21T07:26:45.472Z,100385.03
2022-10-21T07:29:13.294Z,100377.97
2022-10-21T07:31:41.230Z,100365.56
2022-10-21T07:34:10.069Z,100355.78
2022-10-21T07:36:40.158Z,100369.91
2022-10-21T07:39:11.718Z,100372.53
2022-10-21T07:41:43.066Z,100365.41
2022-10-21T07:44:11.694Z,100355.63
2022-10-21T07:46:40.898Z,100363.56
2022-10-21T07:49:09.612Z,100361.78
2022-10-21T07:51:37.571Z,100365.28
2022-10-21T07:54:05.723Z,100367.91
2022-10-21T07:56:37.149Z,100359.94
2022-10-21T07:59:10.226Z,100371.41
2022-10-21T08:01:44.302Z,100351.00
2022-10-21T08:04:14.002Z,100365.97
2022-10-21T08:06:42.122Z,100371.25
2022-10-21T08:09:10.266Z,100355.22
2022-10-21T08:11:39.485Z,100348.94
2022-10-21T08:14:08.514Z,100342.63
2022-10-21T08:16:36.957Z,100343.41
2022-10-21T08:19:05.912Z,100324.69
2022-10-21T08:21:33.719Z,100330.75
2022-10-21T08:24:04.273Z,100328.81
2022-10-21T08:26:32.305Z,100326.00
2022-10-21T08:29:03.876Z,100325.81
2022-10-21T08:31:31.986Z,100323.06
2022-10-21T08:33:59.953Z,100316.66
2022-10-21T08:36:28.129Z,100319.97
2022-10-21T08:38:56.342Z,100321.50
2022-10-21T08:41:45.948Z,100306.13
2022-10-21T08:44:27.226Z,100315.59
2022-10-21T08:47:02.840Z,100321.56
2022-10-21T08:49:42.836Z,100327.53
2022-10-21T08:52:14.338Z,100330.81
2022-10-21T08:54:47.760Z,100329.63
2022-10-21T08:57:15.933Z,100324.88
2022-10-21T08:59:45.092Z,100321.03
2022-10-21T09:02:30.884Z,100319.81
2022-10-21T09:05:19.744Z,100314.28
2022-10-21T09:07:54.070Z,100313.16
2022-10-21T09:10:32.894Z,100313.75
2022-10-21T09:13:08.129Z,100313.47
2022-10-21T09:15:55.960Z,100314.97
2022-10-21T09:18:38.162Z,100308.50
2022-10-21T09:21:10.622Z,100298.53
2022-10-21T09:23:55.383Z,100290.28
2022-10-21T09:26:39.922Z,100299.88
2022-10-21T09:29:20.699Z,100305.03
2022-10-21T09:31:56.052Z,100313.81
2022-10-21T09:34:38.482Z,100309.16
2022-10-21T09:37:13.078Z,100313.53
2022-10-21T09:39:45.473Z,100318.88
2022-10-21T09:42:35.400Z,100316.28
2022-10-21T09:45:16.224Z,100304.84
2022-10-21T09:47:47.301Z,100297.53
2022-10-21T09:50:18.188Z,100306.44
2022-10-21T09:52:54.119Z,100304.59
2022-10-21T09:55:22.616Z,100299.94
2022-10-21T09:57:55.785Z,100307.03
2022-10-21T10:00:23.659Z,100303.28
2022-10-21T10:02:52.884Z,100301.28
2022-10-21T10:05:38.974Z,100306.44
2022-10-21T10:08:22.055Z,100312.63
2022-10-21T10:10:49.845Z,100305.34
2022-10-21T10:13:24.322Z,100309.66
2022-10-21T10:15:52.063Z,100305.97
2022-10-21T10:18:23.647Z,100301.41
2022-10-21T10:21:06.421Z,100291.56
2022-10-21T10:23:44.050Z,100280.72
2022-10-21T10:26:12.843Z,100289.63
2022-10-21T10:31:09.338Z,100279.81
2022-10-21T10:33:38.621Z,100285.22
2022-10-21T10:36:09.682Z,100286.16
2022-10-21T10:38:41.378Z,100289.00
2022-10-21T10:41:11.408Z,100287.22
2022-10-21T10:43:47.330Z,100294.41
2022-10-21T10:46:24.595Z,100293.56
2022-10-21T10:48:55.385Z,100289.16
2022-10-21T10:51:28.814Z,100294.47
2022-10-21T10:54:16.365Z,100288.31
2022-10-21T10:56:49.622Z,100287.41
2022-10-21T10:59:26.414Z,100285.59
2022-10-21T11:02:01.442Z,100282.91
2022-10-21T11:04:35.867Z,100282.03
2022-10-21T11:07:13.199Z,100288.31
2022-10-21T11:09:41.074Z,100289.16
2022-10-21T11:12:20.732Z,100286.44
2022-10-21T11:14:52.763Z,100277.56
2022-10-21T11:17:26.497Z,100268.75
2022-10-21T11:20:01.019Z,100276.78
2022-10-21T11:22:42.068Z,100269.66
2022-10-21T11:25:21.077Z,100265.22
2022-10-21T11:28:02.602Z,100256.28
2022-10-21T11:30:40.980Z,100257.25
2022-10-21T11:33:20.422Z,100248.34
2022-10-21T11:35:59.838Z,100252.81
2022-10-21T11:38:54.065Z,100251.97
2022-10-21T11:41:31.713Z,100251.09
2022-10-21T11:44:14.374Z,100252.00
2022-10-21T11:46:54.345Z,100244.00
2022-10-21T11:49:37.321Z,100243.94
2022-10-21T11:52:17.930Z,100255.50
2022-10-21T11:55:10.545Z,100245.66
2022-10-21T11:57:50.837Z,100253.75
2022-10-21T12:00:21.476Z,100243.94
2022-10-21T12:03:08.877Z,100243.94
2022-10-21T12:05:43.950Z,100235.94
2022-10-21T12:08:18.577Z,100234.13
2022-10-21T12:10:52.847Z,100229.72
2022-10-21T12:13:26.112Z,100230.59
2022-10-21T12:15:58.063Z,100236.00
2022-10-21T12:18:29.839Z,100240.44
2022-10-21T12:20:59.651Z,100239.50
2022-10-21T12:23:32.538Z,100238.63
2022-10-21T12:26:16.103Z,100241.31
2022-10-21T12:28:50.135Z,100243.06
2022-10-21T12:31:35.204Z,100241.31
2022-10-21T12:34:04.371Z,100230.59
2022-10-21T12:36:44.644Z,100231.50
2022-10-21T12:39:19.209Z,100231.56
2022-10-21T12:41:48.469Z,100241.47
2022-10-21T12:44:24.406Z,100229.03
2022-10-21T12:46:54.782Z,100237.06
2022-10-21T12:49:30.512Z,100231.75
2022-10-21T12:52:06.615Z,100228.22
2022-10-21T12:54:44.309Z,100221.97
2022-10-21T12:57:23.594Z,100220.19
2022-10-21T12:59:51.414Z,100224.63
2022-10-21T13:02:24.218Z,100221.06
2022-10-21T13:04:54.343Z,100223.72
2022-10-21T13:07:32.204Z,100226.41
2022-10-21T13:10:26.905Z,100220.19
2022-10-21T13:13:34.618Z,100220.22
2022-10-21T13:16:30.443Z,100220.22
2022-10-21T13:19:00.392Z,100213.97
2022-10-21T13:21:36.556Z,100218.41
2022-10-21T13:24:15.186Z,100215.75
2022-10-21T13:26:50.798Z,100213.97
2022-10-21T13:29:47.774Z,100216.66
2022-10-21T13:32:28.422Z,100221.13
2022-10-21T13:35:12.767Z,100213.16
2022-10-21T13:37:43.991Z,100218.50
2022-10-21T13:40:17.715Z,100222.16
2022-10-21T13:42:56.774Z,100223.88
2022-10-21T13:45:28.364Z,100222.09
2022-10-21T13:48:05.001Z,100218.50
2022-10-21T13:50:38.494Z,100228.34
2022-10-21T13:53:29.946Z,100223.03
2022-10-21T13:56:00.265Z,100228.38
2022-10-21T13:58:31.817Z,100226.59
2022-10-21T14:01:08.938Z,100222.19
2022-10-21T14:03:36.910Z,100225.78
2022-10-21T14:06:08.528Z,100231.16
2022-10-21T14:08:41.904Z,100234.81
2022-10-21T14:11:16.027Z,100239.28
2022-10-21T14:13:46.648Z,100224.16
2022-10-21T14:16:22.290Z,100219.72
2022-10-21T14:18:50.833Z,100230.47
2022-10-21T14:21:22.261Z,100219.81
2022-10-21T14:23:51.138Z,100230.53
2022-10-21T14:26:19.524Z,100223.47
2022-10-21T14:28:50.288Z,100233.34
2022-10-21T14:31:19.372Z,100231.56
2022-10-21T14:33:49.592Z,100237.81
2022-10-21T14:36:20.557Z,100242.34
2022-10-21T14:38:58.776Z,100238.84
2022-10-21T14:41:31.129Z,100234.47
2022-10-21T14:44:07.615Z,100234.56
2022-10-21T14:46:43.068Z,100232.81
2022-10-21T14:49:22.346Z,100234.72
2022-10-21T14:51:51.137Z,100233.00
2022-10-21T14:54:28.772Z,100230.47
2022-10-21T14:56:57.902Z,100240.28
2022-10-21T14:59:32.407Z,100236.81
2022-10-21T15:02:02.130Z,100243.09
2022-10-21T15:04:49.605Z,100235.16
2022-10-21T15:10:11.049Z,100237.13
2022-10-21T15:12:43.991Z,100244.34
2022-10-21T15:15:48.224Z,100240.00
2022-10-21T15:18:23.782Z,100235.59
2022-10-21T15:20:58.177Z,100237.53
2022-10-21T15:23:30.488Z,100238.50
2022-10-21T15:26:01.339Z,100242.09
2022-10-21T15:28:32.762Z,100243.97
2022-10-21T15:31:02.998Z,100234.25
2022-10-21T15:33:31.450Z,100237.00
2022-10-21T15:36:04.549Z,100235.28
2022-10-21T15:38:32.356Z,100235.38
2022-10-21T15:41:00.106Z,100247.84
2022-10-21T15:43:28.293Z,100244.38
2022-10-21T15:45:56.252Z,100243.56
2022-10-21T15:48:25.609Z,100236.50
2022-10-21T15:50:55.978Z,100235.66
2022-10-21T15:53:23.853Z,100240.16
2022-10-21T15:55:52.001Z,100242.84
2022-10-21T15:58:20.308Z,100237.56
2022-10-21T16:00:48.142Z,100239.41
2022-10-21T16:03:16.224Z,100235.03
2022-10-21T16:05:45.925Z,100235.09
2022-10-21T16:08:14.127Z,100232.44
2022-10-21T16:10:47.581Z,100241.41
2022-10-21T16:13:15.996Z,100234.34
2022-10-21T16:15:44.004Z,100237.06
2022-10-21T16:18:13.398Z,100237.09
2022-10-21T16:20:42.462Z,100240.63
2022-10-21T16:23:12.128Z,100245.09
2022-10-21T16:25:39.968Z,100246.03
2022-10-21T16:28:07.922Z,100251.41
2022-10-21T16:30:39.176Z,100262.13
2022-10-21T16:33:07.183Z,100254.16
2022-10-21T16:35:35.113Z,100259.53
2022-10-21T16:38:03.138Z,100266.66
2022-10-21T16:40:34.941Z,100271.09
2022-10-21T16:43:02.831Z,100270.19
2022-10-21T16:45:32.754Z,100279.06
2022-10-21T16:48:02.014Z,100272.00
2022-10-21T16:50:39.247Z,100287.97
2022-10-21T16:53:07.517Z,100295.09
2022-10-21T16:55:37.089Z,100302.16
2022-10-21T16:58:05.198Z,100298.56
2022-10-21T17:00:32.956Z,100294.13
2022-10-21T17:03:00.947Z,100295.84
2022-10-21T17:05:28.750Z,100294.09
2022-10-21T17:07:57.085Z,100297.63
2022-10-21T17:10:24.846Z,100295.00
2022-10-21T17:12:58.829Z,100295.00
2022-10-21T17:15:28.214Z,100292.31
2022-10-21T17:17:56.042Z,100290.53
2022-10-21T17:20:23.840Z,100286.97
2022-10-21T17:22:51.629Z,100276.31
2022-10-21T17:25:19.544Z,100279.00
2022-10-21T17:27:47.291Z,100288.81
2022-10-21T17:30:16.428Z,100282.59
2022-10-21T17:32:44.212Z,100279.97
2022-10-21T17:35:18.601Z,100283.53
2022-10-21T17:37:47.007Z,100280.00
2022-10-21T17:40:17.273Z,100283.56
2022-10-21T17:42:45.096Z,100294.28
2022-10-21T17:45:14.172Z,100297.91
2022-10-21T17:47:43.880Z,100313.94
2022-10-21T17:50:13.042Z,100338.84
2022-10-21T17:52:42.012Z,100343.34
2022-10-21T17:55:10.216Z,100330.88
2022-10-21T17:57:37.936Z,100319.34
2022-10-21T18:00:06.404Z,100314.91
2022-10-21T18:02:35.733Z,100307.84
2022-10-21T18:05:05.860Z,100302.53
2022-10-21T18:07:33.610Z,100307.84
2022-10-21T18:10:01.422Z,100299.84
2022-10-21T18:12:30.339Z,100300.75
2022-10-21T18:14:58.096Z,100304.34
2022-10-21T18:17:25.888Z,100305.22
2022-10-21T18:19:53.848Z,100302.59
2022-10-21T18:22:23.436Z,100299.03
2022-10-21T18:24:52.693Z,100300.84
2022-10-21T18:27:20.454Z,100287.53
2022-10-21T18:29:48.214Z,100275.16
2022-10-21T18:32:16.049Z,100278.72
2022-10-21T18:34:43.991Z,100286.75
2022-10-21T18:37:11.741Z,100282.31
2022-10-21T18:39:40.947Z,100281.47
2022-10-21T18:42:08.662Z,100288.66
2022-10-21T18:44:36.677Z,100301.06
2022-10-21T18:47:04.533Z,100298.38
2022-10-21T18:49:32.499Z,100298.38
2022-10-21T18:52:00.230Z,100298.38
2022-10-21T18:54:27.974Z,100301.06
2022-10-21T18:56:57.113Z,100307.34
2022-10-21T18:59:24.889Z,100310.00
2022-10-21T19:01:54.782Z,100313.56
2022-10-21T19:04:22.636Z,100318.06
2022-10-21T19:06:50.382Z,100314.53
2022-10-21T19:09:20.077Z,100303.88
2022-10-21T19:11:48.545Z,100314.56
2022-10-21T19:14:17.772Z,100310.13
2022-10-21T19:16:46.776Z,100317.22
2022-10-21T19:19:15.541Z,100316.34
2022-10-21T19:21:43.461Z,100315.47
2022-10-21T19:24:11.623Z,100325.28
2022-10-21T19:26:40.999Z,100331.50
2022-10-21T19:29:13.339Z,100333.31
2022-10-21T19:31:43.338Z,100343.06
2022-10-21T19:34:12.634Z,100344.91
2022-10-21T19:36:40.458Z,100337.78
2022-10-21T19:39:08.439Z,100328.94
2022-10-21T19:41:36.267Z,100327.19
2022-10-21T19:44:04.150Z,100326.38
2022-10-21T19:46:33.789Z,100318.41
2022-10-21T19:49:03.862Z,100319.38
2022-10-21T19:51:31.805Z,100323.88
2022-10-21T19:54:00.088Z,100330.13
2022-10-21T19:56:32.007Z,100327.50
2022-10-21T19:59:02.617Z,100337.28
2022-10-21T20:01:31.537Z,100332.03
2022-10-21T20:04:01.210Z,100336.53
2022-10-21T20:06:32.286Z,100331.28
2022-10-21T20:09:02.645Z,100330.47
2022-10-21T20:11:31.075Z,100332.28
2022-10-21T20:13:59.287Z,100335.91
2022-10-21T20:16:29.745Z,100339.53
2022-10-21T20:18:58.216Z,100341.38
2022-10-21T20:21:26.930Z,100341.44
2022-10-21T20:23:58.048Z,100348.59
2022-10-21T20:26:26.212Z,100361.06
2022-10-21T20:28:54.142Z,100354.94
2022-10-21T20:31:22.262Z,100353.19
2022-10-21T20:33:51.681Z,100353.28
2022-10-21T20:36:21.633Z,100354.19
2022-10-21T20:38:50.085Z,100361.38
2022-10-21T20:41:22.118Z,100357.88
2022-10-21T20:43:51.109Z,100357.94
2022-10-21T20:46:21.009Z,100360.63
2022-10-21T20:48:50.393Z,100365.13
2022-10-21T20:51:20.599Z,100365.19
2022-10-21T20:53:49.872Z,100355.47
2022-10-21T20:56:19.427Z,100350.19
2022-10-21T20:58:47.927Z,100349.34
2022-10-21T21:01:19.435Z,100349.41
2022-10-21T21:03:50.618Z,100345.91
2022-10-21T21:06:19.081Z,100342.44
2022-10-21T21:08:49.322Z,100346.91
2022-10-21T21:11:36.404Z,100344.31
2022-10-21T21:14:04.254Z,100345.25
2022-10-21T21:16:32.419Z,100347.09
2022-10-21T21:19:02.986Z,100345.34
2022-10-21T21:21:32.515Z,100351.59
2022-10-21T21:24:01.318Z,100348.97
2022-10-21T21:26:31.781Z,100356.09
2022-10-21T21:29:01.573Z,100356.13
2022-10-21T21:31:31.390Z,100360.59
2022-10-21T21:34:00.066Z,100355.31
2022-10-21T21:36:28.224Z,100367.75
2022-10-21T21:38:56.052Z,100371.28
2022-10-21T21:41:25.341Z,100378.41
2022-10-21T21:43:54.626Z,100377.53
2022-10-21T21:46:24.515Z,100386.38
2022-10-21T21:48:55.369Z,100375.75
2022-10-21T21:51:26.286Z,100378.44
2022-10-21T21:53:54.877Z,100380.19
2022-10-21T21:56:23.515Z,100383.72
2022-10-21T21:58:52.376Z,100377.53
2022-10-21T22:01:22.164Z,100368.63
2022-10-21T22:03:52.139Z,100361.56
2022-10-21T22:06:20.974Z,100362.47
2022-10-21T22:08:49.891Z,100373.09
2022-10-21T22:11:19.405Z,100374.03
2022-10-21T22:13:47.288Z,100384.69
2022-10-21T22:16:16.310Z,100389.09
2022-10-21T22:18:44.710Z,100397.09
2022-10-21T22:21:16.272Z,100376.72
2022-10-21T22:23:44.829Z,100385.59
2022-10-21T22:26:13.565Z,100370.53
2022-10-21T22:28:41.850Z,100370.53
2022-10-21T22:31:12.359Z,100369.63
2022-10-21T22:33:41.022Z,100362.56
2022-10-21T22:36:09.687Z,100363.44
2022-10-21T22:38:38.842Z,100363.47
2022-10-21T22:41:09.938Z,100352.84
2022-10-21T22:43:39.923Z,100342.19
2022-10-21T22:46:29.406Z,100335.16
2022-10-21T22:48:55.870Z,100324.53
2022-10-21T22:51:24.191Z,100308.59
2022-10-21T22:53:56.285Z,100302.44
2022-10-21T22:56:25.187Z,100296.19
2022-10-21T22:58:53.252Z,100303.34
2022-10-21T23:01:21.348Z,100314.91
2022-10-21T23:03:49.202Z,100324.72
2022-10-21T23:06:17.021Z,100320.28
2022-10-21T23:08:44.827Z,100330.06
2022-10-21T23:11:14.219Z,100343.41
2022-10-21T23:13:56.033Z,100348.75
2022-10-21T23:16:29.819Z,100347.88
2022-10-21T23:18:57.670Z,100355.88
2022-10-21T23:21:25.558Z,100351.53
2022-10-21T23:23:53.518Z,100350.69
2022-10-21T23:26:22.701Z,100357.78
2022-10-21T23:28:50.530Z,100352.50
2022-10-21T23:31:18.405Z,100351.66
2022-10-21T23:33:46.375Z,100350.75
2022-10-21T23:36:14.324Z,100359.66
2022-10-21T23:38:42.117Z,100348.19
2022-10-21T23:41:09.922Z,100342.88
2022-10-21T23:43:39.088Z,100342.91
2022-10-21T23:46:07.752Z,100342.94
2022-10-21T23:48:35.567Z,100336.75
2022-10-21T23:51:04.292Z,100338.56
2022-10-21T23:53:32.167Z,100328.84
2022-10-21T23:55:59.981Z,100330.63
2022-10-21T23:58:30.546Z,100324.44
